sensor_id;sensor_type;location;lat;lon;timestamp;temperature;humidity
23188;DHT22;11762;59.878;17.686;2022-07-12T00:02:07;13.80;99.90
23188;DHT22;11762;59.878;17.686;2022-07-12T00:04:34;13.80;99.90
23188;DHT22;11762;59.878;17.686;2022-07-12T00:07:02;13.60;99.90
23188;DHT22;11762;59.878;17.686;2022-07-12T00:09:30;13.20;99.90
23188;DHT22;11762;59.878;17.686;2022-07-12T00:11:57;12.60;99.90
23188;DHT22;11762;59.878;17.686;2022-07-12T00:14:24;12.30;99.90
23188;DHT22;11762;59.878;17.686;2022-07-12T00:16:51;12.30;99.90
23188;DHT22;11762;59.878;17.686;2022-07-12T00:19:18;12.40;99.90
23188;DHT22;11762;59.878;17.686;2022-07-12T00:21:45;12.50;99.90
23188;DHT22;11762;59.878;17.686;2022-07-12T00:24:14;12.50;99.90
23188;DHT22;11762;59.878;17.686;2022-07-12T00:26:41;12.60;99.90
23188;DHT22;11762;59.878;17.686;2022-07-12T00:29:08;12.50;99.90
23188;DHT22;11762;59.878;17.686;2022-07-12T00:31:35;12.40;99.90
23188;DHT22;11762;59.878;17.686;2022-07-12T00:34:02;12.40;99.90
23188;DHT22;11762;59.878;17.686;2022-07-12T00:36:29;12.30;99.90
23188;DHT22;11762;59.878;17.686;2022-07-12T00:38:56;12.20;99.90
23188;DHT22;11762;59.878;17.686;2022-07-12T00:41:25;12.10;99.90
23188;DHT22;11762;59.878;17.686;2022-07-12T00:43:52;12.10;99.90
23188;DHT22;11762;59.878;17.686;2022-07-12T00:46:22;12.10;99.90
23188;DHT22;11762;59.878;17.686;2022-07-12T00:48:50;12.20;99.90
23188;DHT22;11762;59.878;17.686;2022-07-12T00:51:18;12.30;99.90
23188;DHT22;11762;59.878;17.686;2022-07-12T00:53:45;12.30;99.90
23188;DHT22;11762;59.878;17.686;2022-07-12T00:56:13;12.40;99.90
23188;DHT22;11762;59.878;17.686;2022-07-12T00:58:42;12.40;99.90
23188;DHT22;11762;59.878;17.686;2022-07-12T01:01:09;12.40;99.90
23188;DHT22;11762;59.878;17.686;2022-07-12T01:03:36;12.40;99.90
23188;DHT22;11762;59.878;17.686;2022-07-12T01:06:04;12.30;99.90
23188;DHT22;11762;59.878;17.686;2022-07-12T01:08:33;12.00;99.90
23188;DHT22;11762;59.878;17.686;2022-07-12T01:11:00;11.40;99.90
23188;DHT22;11762;59.878;17.686;2022-07-12T01:13:29;11.10;99.90
23188;DHT22;11762;59.878;17.686;2022-07-12T01:15:57;10.70;99.90
23188;DHT22;11762;59.878;17.686;2022-07-12T01:18:25;10.50;99.90
23188;DHT22;11762;59.878;17.686;2022-07-12T01:20:54;10.30;99.90
23188;DHT22;11762;59.878;17.686;2022-07-12T01:23:22;10.20;99.90
23188;DHT22;11762;59.878;17.686;2022-07-12T01:25:50;10.30;99.90
23188;DHT22;11762;59.878;17.686;2022-07-12T01:28:17;10.30;99.90
23188;DHT22;11762;59.878;17.686;2022-07-12T01:30:44;10.30;99.90
23188;DHT22;11762;59.878;17.686;2022-07-12T01:33:11;10.30;99.90
23188;DHT22;11762;59.878;17.686;2022-07-12T01:35:39;10.40;99.90
23188;DHT22;11762;59.878;17.686;2022-07-12T01:38:07;10.40;99.90
23188;DHT22;11762;59.878;17.686;2022-07-12T01:40:35;10.40;99.90
23188;DHT22;11762;59.878;17.686;2022-07-12T01:43:02;10.50;99.90
23188;DHT22;11762;59.878;17.686;2022-07-12T01:45:30;10.50;99.90
23188;DHT22;11762;59.878;17.686;2022-07-12T01:47:57;10.50;99.90
23188;DHT22;11762;59.878;17.686;2022-07-12T01:50:25;10.50;99.90
23188;DHT22;11762;59.878;17.686;2022-07-12T01:52:52;10.40;99.90
23188;DHT22;11762;59.878;17.686;2022-07-12T01:55:19;10.30;99.90
23188;DHT22;11762;59.878;17.686;2022-07-12T01:57:48;10.30;99.90
23188;DHT22;11762;59.878;17.686;2022-07-12T02:00:16;10.30;99.90
23188;DHT22;11762;59.878;17.686;2022-07-12T02:02:46;10.30;99.90
23188;DHT22;11762;59.878;17.686;2022-07-12T02:05:13;10.40;99.90
23188;DHT22;11762;59.878;17.686;2022-07-12T02:07:40;10.50;99.90
23188;DHT22;11762;59.878;17.686;2022-07-12T02:10:08;10.60;99.90
23188;DHT22;11762;59.878;17.686;2022-07-12T02:12:35;10.90;99.90
23188;DHT22;11762;59.878;17.686;2022-07-12T02:15:06;11.10;99.90
23188;DHT22;11762;59.878;17.686;2022-07-12T02:17:33;11.30;99.90
23188;DHT22;11762;59.878;17.686;2022-07-12T02:20:01;11.50;99.90
23188;DHT22;11762;59.878;17.686;2022-07-12T02:22:28;11.60;99.90
23188;DHT22;11762;59.878;17.686;2022-07-12T02:24:55;11.80;99.90
23188;DHT22;11762;59.878;17.686;2022-07-12T02:27:22;12.00;99.90
23188;DHT22;11762;59.878;17.686;2022-07-12T02:29:49;12.10;99.90
23188;DHT22;11762;59.878;17.686;2022-07-12T02:32:17;12.20;99.90
23188;DHT22;11762;59.878;17.686;2022-07-12T02:34:44;12.50;99.90
23188;DHT22;11762;59.878;17.686;2022-07-12T02:37:11;12.90;99.90
23188;DHT22;11762;59.878;17.686;2022-07-12T02:39:40;13.40;99.90
23188;DHT22;11762;59.878;17.686;2022-07-12T02:42:07;13.90;99.90
23188;DHT22;11762;59.878;17.686;2022-07-12T02:44:34;14.30;99.90
23188;DHT22;11762;59.878;17.686;2022-07-12T02:47:01;14.80;99.90
23188;DHT22;11762;59.878;17.686;2022-07-12T02:49:29;15.30;99.90
23188;DHT22;11762;59.878;17.686;2022-07-12T02:51:56;15.80;99.90
23188;DHT22;11762;59.878;17.686;2022-07-12T02:54:23;16.10;99.90
23188;DHT22;11762;59.878;17.686;2022-07-12T02:56:50;16.30;99.90
23188;DHT22;11762;59.878;17.686;2022-07-12T02:59:17;16.40;99.90
23188;DHT22;11762;59.878;17.686;2022-07-12T03:01:44;16.30;99.90
23188;DHT22;11762;59.878;17.686;2022-07-12T03:04:11;16.20;99.90
23188;DHT22;11762;59.878;17.686;2022-07-12T03:06:40;16.50;99.90
23188;DHT22;11762;59.878;17.686;2022-07-12T03:09:07;16.80;99.90
23188;DHT22;11762;59.878;17.686;2022-07-12T03:11:34;16.90;99.90
23188;DHT22;11762;59.878;17.686;2022-07-12T03:14:01;17.00;99.90
23188;DHT22;11762;59.878;17.686;2022-07-12T03:16:28;17.10;99.90
23188;DHT22;11762;59.878;17.686;2022-07-12T03:18:55;17.30;99.90
23188;DHT22;11762;59.878;17.686;2022-07-12T03:21:22;17.40;99.90
23188;DHT22;11762;59.878;17.686;2022-07-12T03:23:50;17.40;99.90
23188;DHT22;11762;59.878;17.686;2022-07-12T03:26:17;17.40;99.90
23188;DHT22;11762;59.878;17.686;2022-07-12T03:28:44;17.20;99.90
23188;DHT22;11762;59.878;17.686;2022-07-12T03:31:11;17.50;99.90
23188;DHT22;11762;59.878;17.686;2022-07-12T03:33:39;17.50;99.90
23188;DHT22;11762;59.878;17.686;2022-07-12T03:36:07;17.20;99.90
23188;DHT22;11762;59.878;17.686;2022-07-12T03:38:34;16.90;99.90
23188;DHT22;11762;59.878;17.686;2022-07-12T03:41:04;16.80;99.90
23188;DHT22;11762;59.878;17.686;2022-07-12T03:43:31;17.00;99.90
23188;DHT22;11762;59.878;17.686;2022-07-12T03:45:58;17.20;99.90
23188;DHT22;11762;59.878;17.686;2022-07-12T03:48:25;17.20;99.90
23188;DHT22;11762;59.878;17.686;2022-07-12T03:50:52;17.20;99.90
23188;DHT22;11762;59.878;17.686;2022-07-12T03:53:19;16.70;99.90
23188;DHT22;11762;59.878;17.686;2022-07-12T03:55:46;16.40;99.90
23188;DHT22;11762;59.878;17.686;2022-07-12T03:58:14;16.20;99.90
23188;DHT22;11762;59.878;17.686;2022-07-12T04:00:41;16.10;99.90
23188;DHT22;11762;59.878;17.686;2022-07-12T04:03:09;15.90;99.90
23188;DHT22;11762;59.878;17.686;2022-07-12T04:05:37;16.00;99.90
23188;DHT22;11762;59.878;17.686;2022-07-12T04:08:04;16.30;99.90
23188;DHT22;11762;59.878;17.686;2022-07-12T04:10:31;16.60;99.90
23188;DHT22;11762;59.878;17.686;2022-07-12T04:12:58;16.60;99.90
23188;DHT22;11762;59.878;17.686;2022-07-12T04:15:27;16.60;99.90
23188;DHT22;11762;59.878;17.686;2022-07-12T04:17:54;16.50;99.90
23188;DHT22;11762;59.878;17.686;2022-07-12T04:20:21;16.40;99.90
23188;DHT22;11762;59.878;17.686;2022-07-12T04:22:48;16.30;99.90
23188;DHT22;11762;59.878;17.686;2022-07-12T04:25:15;16.30;99.90
23188;DHT22;11762;59.878;17.686;2022-07-12T04:27:42;16.20;99.90
23188;DHT22;11762;59.878;17.686;2022-07-12T04:30:09;16.10;99.90
23188;DHT22;11762;59.878;17.686;2022-07-12T04:32:38;16.00;99.90
23188;DHT22;11762;59.878;17.686;2022-07-12T04:35:06;15.70;99.90
23188;DHT22;11762;59.878;17.686;2022-07-12T04:37:33;15.50;99.90
23188;DHT22;11762;59.878;17.686;2022-07-12T04:40:00;15.40;99.90
23188;DHT22;11762;59.878;17.686;2022-07-12T04:42:27;15.50;99.90
23188;DHT22;11762;59.878;17.686;2022-07-12T04:44:54;15.60;99.90
23188;DHT22;11762;59.878;17.686;2022-07-12T04:47:21;15.80;99.90
23188;DHT22;11762;59.878;17.686;2022-07-12T04:49:49;15.90;99.90
23188;DHT22;11762;59.878;17.686;2022-07-12T04:52:16;16.10;99.90
23188;DHT22;11762;59.878;17.686;2022-07-12T04:54:43;16.60;99.90
23188;DHT22;11762;59.878;17.686;2022-07-12T04:57:10;17.30;99.90
23188;DHT22;11762;59.878;17.686;2022-07-12T04:59:37;17.70;99.90
23188;DHT22;11762;59.878;17.686;2022-07-12T05:02:04;18.20;99.90
23188;DHT22;11762;59.878;17.686;2022-07-12T05:04:32;18.40;99.90
23188;DHT22;11762;59.878;17.686;2022-07-12T05:07:01;18.90;99.90
23188;DHT22;11762;59.878;17.686;2022-07-12T05:09:28;19.10;99.90
23188;DHT22;11762;59.878;17.686;2022-07-12T05:11:55;19.70;99.90
23188;DHT22;11762;59.878;17.686;2022-07-12T05:14:22;20.10;99.90
23188;DHT22;11762;59.878;17.686;2022-07-12T05:16:49;20.50;99.90
23188;DHT22;11762;59.878;17.686;2022-07-12T05:19:16;20.80;99.90
23188;DHT22;11762;59.878;17.686;2022-07-12T05:21:44;21.10;99.90
23188;DHT22;11762;59.878;17.686;2022-07-12T05:24:13;21.40;99.90
23188;DHT22;11762;59.878;17.686;2022-07-12T05:26:40;21.50;99.90
23188;DHT22;11762;59.878;17.686;2022-07-12T05:29:07;21.80;99.90
23188;DHT22;11762;59.878;17.686;2022-07-12T05:31:34;21.80;99.90
23188;DHT22;11762;59.878;17.686;2022-07-12T05:34:02;21.70;99.90
23188;DHT22;11762;59.878;17.686;2022-07-12T05:36:29;22.10;99.90
23188;DHT22;11762;59.878;17.686;2022-07-12T05:38:56;22.40;99.90
23188;DHT22;11762;59.878;17.686;2022-07-12T05:41:24;22.70;99.90
23188;DHT22;11762;59.878;17.686;2022-07-12T05:43:51;22.70;99.90
23188;DHT22;11762;59.878;17.686;2022-07-12T05:46:18;22.90;99.90
23188;DHT22;11762;59.878;17.686;2022-07-12T05:48:45;22.90;99.90
23188;DHT22;11762;59.878;17.686;2022-07-12T05:51:12;23.10;99.90
23188;DHT22;11762;59.878;17.686;2022-07-12T05:53:57;23.30;99.90
23188;DHT22;11762;59.878;17.686;2022-07-12T05:56:25;23.80;99.90
23188;DHT22;11762;59.878;17.686;2022-07-12T05:58:52;24.40;99.90
23188;DHT22;11762;59.878;17.686;2022-07-12T06:01:19;24.30;99.90
23188;DHT22;11762;59.878;17.686;2022-07-12T06:03:46;23.50;99.90
23188;DHT22;11762;59.878;17.686;2022-07-12T06:06:13;23.70;99.90
23188;DHT22;11762;59.878;17.686;2022-07-12T06:08:40;22.90;99.90
23188;DHT22;11762;59.878;17.686;2022-07-12T06:11:07;23.00;99.90
23188;DHT22;11762;59.878;17.686;2022-07-12T06:13:36;23.40;99.90
23188;DHT22;11762;59.878;17.686;2022-07-12T06:16:03;23.70;99.90
23188;DHT22;11762;59.878;17.686;2022-07-12T06:18:34;23.70;99.90
23188;DHT22;11762;59.878;17.686;2022-07-12T06:21:01;24.10;99.90
23188;DHT22;11762;59.878;17.686;2022-07-12T06:23:29;24.00;99.90
23188;DHT22;11762;59.878;17.686;2022-07-12T06:25:56;23.90;99.90
23188;DHT22;11762;59.878;17.686;2022-07-12T06:28:23;23.60;99.90
23188;DHT22;11762;59.878;17.686;2022-07-12T06:30:52;23.30;99.90
23188;DHT22;11762;59.878;17.686;2022-07-12T06:33:19;22.60;99.90
23188;DHT22;11762;59.878;17.686;2022-07-12T06:35:46;22.60;99.90
23188;DHT22;11762;59.878;17.686;2022-07-12T06:38:13;22.80;99.90
23188;DHT22;11762;59.878;17.686;2022-07-12T06:40:40;22.90;99.90
23188;DHT22;11762;59.878;17.686;2022-07-12T06:43:08;22.50;99.90
23188;DHT22;11762;59.878;17.686;2022-07-12T06:45:36;23.00;99.90
23188;DHT22;11762;59.878;17.686;2022-07-12T06:48:05;23.60;99.90
23188;DHT22;11762;59.878;17.686;2022-07-12T06:50:32;23.70;99.90
23188;DHT22;11762;59.878;17.686;2022-07-12T06:52:59;23.70;99.90
23188;DHT22;11762;59.878;17.686;2022-07-12T06:55:26;23.40;99.90
23188;DHT22;11762;59.878;17.686;2022-07-12T06:57:53;23.20;99.90
23188;DHT22;11762;59.878;17.686;2022-07-12T07:00:20;23.10;99.90
23188;DHT22;11762;59.878;17.686;2022-07-12T07:02:47;22.60;99.90
23188;DHT22;11762;59.878;17.686;2022-07-12T07:05:16;22.40;99.90
23188;DHT22;11762;59.878;17.686;2022-07-12T07:07:43;21.70;99.90
23188;DHT22;11762;59.878;17.686;2022-07-12T07:10:10;22.40;99.90
23188;DHT22;11762;59.878;17.686;2022-07-12T07:12:38;22.10;99.90
23188;DHT22;11762;59.878;17.686;2022-07-12T07:15:05;22.60;99.90
23188;DHT22;11762;59.878;17.686;2022-07-12T07:17:33;23.20;99.90
23188;DHT22;11762;59.878;17.686;2022-07-12T07:20:01;23.50;99.90
23188;DHT22;11762;59.878;17.686;2022-07-12T07:22:29;23.40;99.90
23188;DHT22;11762;59.878;17.686;2022-07-12T07:24:56;23.40;99.90
23188;DHT22;11762;59.878;17.686;2022-07-12T07:27:23;23.10;99.90
23188;DHT22;11762;59.878;17.686;2022-07-12T07:29:50;23.20;99.90
23188;DHT22;11762;59.878;17.686;2022-07-12T07:32:35;23.40;99.90
23188;DHT22;11762;59.878;17.686;2022-07-12T07:35:02;23.00;99.90
23188;DHT22;11762;59.878;17.686;2022-07-12T07:37:32;23.30;99.90
23188;DHT22;11762;59.878;17.686;2022-07-12T07:40:00;23.10;99.90
23188;DHT22;11762;59.878;17.686;2022-07-12T07:42:27;23.00;99.90
23188;DHT22;11762;59.878;17.686;2022-07-12T07:44:54;22.70;99.90
23188;DHT22;11762;59.878;17.686;2022-07-12T07:47:21;22.40;99.90
23188;DHT22;11762;59.878;17.686;2022-07-12T07:49:48;22.30;99.90
23188;DHT22;11762;59.878;17.686;2022-07-12T07:52:16;22.20;99.90
23188;DHT22;11762;59.878;17.686;2022-07-12T07:54:44;22.10;99.90
23188;DHT22;11762;59.878;17.686;2022-07-12T07:57:11;22.00;99.90
23188;DHT22;11762;59.878;17.686;2022-07-12T07:59:38;21.80;99.90
23188;DHT22;11762;59.878;17.686;2022-07-12T08:02:05;21.90;99.90
23188;DHT22;11762;59.878;17.686;2022-07-12T08:04:32;22.10;99.90
23188;DHT22;11762;59.878;17.686;2022-07-12T08:06:59;22.20;99.90
23188;DHT22;11762;59.878;17.686;2022-07-12T08:09:26;22.30;99.90
23188;DHT22;11762;59.878;17.686;2022-07-12T08:11:54;22.40;99.90
23188;DHT22;11762;59.878;17.686;2022-07-12T08:14:21;22.50;99.90
23188;DHT22;11762;59.878;17.686;2022-07-12T08:16:48;22.60;99.90
23188;DHT22;11762;59.878;17.686;2022-07-12T08:19:15;22.40;99.90
23188;DHT22;11762;59.878;17.686;2022-07-12T08:21:43;22.50;99.90
23188;DHT22;11762;59.878;17.686;2022-07-12T08:24:10;22.50;99.90
23188;DHT22;11762;59.878;17.686;2022-07-12T08:26:37;22.50;99.90
23188;DHT22;11762;59.878;17.686;2022-07-12T08:29:06;22.50;99.90
23188;DHT22;11762;59.878;17.686;2022-07-12T08:31:33;22.60;99.90
23188;DHT22;11762;59.878;17.686;2022-07-12T08:34:02;22.60;99.90
23188;DHT22;11762;59.878;17.686;2022-07-12T08:36:29;22.70;99.90
23188;DHT22;11762;59.878;17.686;2022-07-12T08:38:56;22.80;99.90
23188;DHT22;11762;59.878;17.686;2022-07-12T08:41:23;22.80;99.90
23188;DHT22;11762;59.878;17.686;2022-07-12T08:43:49;22.80;99.90
23188;DHT22;11762;59.878;17.686;2022-07-12T08:46:18;23.00;99.90
23188;DHT22;11762;59.878;17.686;2022-07-12T08:48:45;22.60;99.90
23188;DHT22;11762;59.878;17.686;2022-07-12T08:51:13;22.80;99.90
23188;DHT22;11762;59.878;17.686;2022-07-12T08:53:41;22.70;99.90
23188;DHT22;11762;59.878;17.686;2022-07-12T08:56:31;23.00;99.90
23188;DHT22;11762;59.878;17.686;2022-07-12T08:59:15;23.10;99.90
23188;DHT22;11762;59.878;17.686;2022-07-12T09:01:46;23.10;99.90
23188;DHT22;11762;59.878;17.686;2022-07-12T09:04:14;23.10;99.90
23188;DHT22;11762;59.878;17.686;2022-07-12T09:06:42;23.00;99.90
23188;DHT22;11762;59.878;17.686;2022-07-12T09:09:09;23.00;99.90
23188;DHT22;11762;59.878;17.686;2022-07-12T09:11:37;22.70;99.90
23188;DHT22;11762;59.878;17.686;2022-07-12T09:14:05;22.70;99.90
23188;DHT22;11762;59.878;17.686;2022-07-12T09:16:32;22.80;99.90
23188;DHT22;11762;59.878;17.686;2022-07-12T09:19:14;23.10;99.90
23188;DHT22;11762;59.878;17.686;2022-07-12T09:21:49;23.00;99.90
23188;DHT22;11762;59.878;17.686;2022-07-12T09:24:18;22.90;99.90
23188;DHT22;11762;59.878;17.686;2022-07-12T09:26:45;23.10;99.90
23188;DHT22;11762;59.878;17.686;2022-07-12T09:29:13;23.30;99.90
23188;DHT22;11762;59.878;17.686;2022-07-12T09:31:43;23.30;99.90
23188;DHT22;11762;59.878;17.686;2022-07-12T09:34:25;23.40;99.90
23188;DHT22;11762;59.878;17.686;2022-07-12T09:37:10;23.20;99.90
23188;DHT22;11762;59.878;17.686;2022-07-12T09:39:38;23.30;99.90
23188;DHT22;11762;59.878;17.686;2022-07-12T09:42:08;23.20;99.90
23188;DHT22;11762;59.878;17.686;2022-07-12T09:44:36;23.30;99.90
23188;DHT22;11762;59.878;17.686;2022-07-12T09:47:03;23.30;99.90
23188;DHT22;11762;59.878;17.686;2022-07-12T09:49:33;23.40;99.90
23188;DHT22;11762;59.878;17.686;2022-07-12T09:52:02;23.50;99.90
23188;DHT22;11762;59.878;17.686;2022-07-12T09:54:31;23.50;99.90
23188;DHT22;11762;59.878;17.686;2022-07-12T09:57:03;23.70;99.90
23188;DHT22;11762;59.878;17.686;2022-07-12T09:59:35;23.80;99.90
23188;DHT22;11762;59.878;17.686;2022-07-12T10:02:03;23.70;99.90
23188;DHT22;11762;59.878;17.686;2022-07-12T10:04:33;23.70;99.90
23188;DHT22;11762;59.878;17.686;2022-07-12T10:07:01;23.70;99.90
23188;DHT22;11762;59.878;17.686;2022-07-12T10:09:28;23.90;99.90
23188;DHT22;11762;59.878;17.686;2022-07-12T10:11:56;24.10;99.90
23188;DHT22;11762;59.878;17.686;2022-07-12T10:14:24;24.10;99.90
23188;DHT22;11762;59.878;17.686;2022-07-12T10:16:52;24.30;99.90
23188;DHT22;11762;59.878;17.686;2022-07-12T10:19:24;24.30;99.90
23188;DHT22;11762;59.878;17.686;2022-07-12T10:21:54;24.40;99.90
23188;DHT22;11762;59.878;17.686;2022-07-12T10:24:50;24.50;99.90
23188;DHT22;11762;59.878;17.686;2022-07-12T10:27:31;24.30;99.90
23188;DHT22;11762;59.878;17.686;2022-07-12T10:30:16;24.20;99.90
23188;DHT22;11762;59.878;17.686;2022-07-12T10:32:45;24.30;99.90
23188;DHT22;11762;59.878;17.686;2022-07-12T10:35:16;24.40;99.90
23188;DHT22;11762;59.878;17.686;2022-07-12T10:38:20;24.20;99.90
23188;DHT22;11762;59.878;17.686;2022-07-12T10:40:49;24.20;99.90
23188;DHT22;11762;59.878;17.686;2022-07-12T10:43:21;24.30;99.90
23188;DHT22;11762;59.878;17.686;2022-07-12T10:46:17;24.40;99.90
23188;DHT22;11762;59.878;17.686;2022-07-12T10:48:48;24.40;99.90
23188;DHT22;11762;59.878;17.686;2022-07-12T10:51:16;24.20;99.90
23188;DHT22;11762;59.878;17.686;2022-07-12T10:53:47;24.20;99.90
23188;DHT22;11762;59.878;17.686;2022-07-12T10:56:18;24.20;99.90
23188;DHT22;11762;59.878;17.686;2022-07-12T10:58:47;24.20;99.90
23188;DHT22;11762;59.878;17.686;2022-07-12T11:01:17;24.10;99.90
23188;DHT22;11762;59.878;17.686;2022-07-12T11:03:46;24.20;99.90
23188;DHT22;11762;59.878;17.686;2022-07-12T11:06:15;24.30;99.90
23188;DHT22;11762;59.878;17.686;2022-07-12T11:08:59;24.40;99.90
23188;DHT22;11762;59.878;17.686;2022-07-12T11:11:28;24.50;99.90
23188;DHT22;11762;59.878;17.686;2022-07-12T11:13:56;24.40;99.90
23188;DHT22;11762;59.878;17.686;2022-07-12T11:16:24;24.50;99.90
23188;DHT22;11762;59.878;17.686;2022-07-12T11:18:51;24.40;99.90
23188;DHT22;11762;59.878;17.686;2022-07-12T11:21:19;24.30;99.90
23188;DHT22;11762;59.878;17.686;2022-07-12T11:23:46;24.40;99.90
23188;DHT22;11762;59.878;17.686;2022-07-12T11:26:15;24.60;99.90
23188;DHT22;11762;59.878;17.686;2022-07-12T11:28:44;24.60;99.90
23188;DHT22;11762;59.878;17.686;2022-07-12T11:31:14;24.40;99.90
23188;DHT22;11762;59.878;17.686;2022-07-12T11:33:43;24.60;99.90
23188;DHT22;11762;59.878;17.686;2022-07-12T11:36:11;24.40;99.90
23188;DHT22;11762;59.878;17.686;2022-07-12T11:38:40;24.40;99.90
23188;DHT22;11762;59.878;17.686;2022-07-12T11:41:08;24.60;99.90
23188;DHT22;11762;59.878;17.686;2022-07-12T11:43:38;24.70;99.90
23188;DHT22;11762;59.878;17.686;2022-07-12T11:46:06;24.60;99.90
23188;DHT22;11762;59.878;17.686;2022-07-12T11:48:35;24.80;99.90
23188;DHT22;11762;59.878;17.686;2022-07-12T11:51:03;25.00;99.90
23188;DHT22;11762;59.878;17.686;2022-07-12T11:53:32;24.80;99.90
23188;DHT22;11762;59.878;17.686;2022-07-12T11:56:00;24.70;99.90
23188;DHT22;11762;59.878;17.686;2022-07-12T11:58:28;24.70;99.90
23188;DHT22;11762;59.878;17.686;2022-07-12T12:00:57;24.60;99.90
23188;DHT22;11762;59.878;17.686;2022-07-12T12:03:24;24.50;99.90
23188;DHT22;11762;59.878;17.686;2022-07-12T12:05:53;24.60;99.90
23188;DHT22;11762;59.878;17.686;2022-07-12T12:08:20;24.90;99.90
23188;DHT22;11762;59.878;17.686;2022-07-12T12:10:55;24.90;99.90
23188;DHT22;11762;59.878;17.686;2022-07-12T12:13:23;24.80;99.90
23188;DHT22;11762;59.878;17.686;2022-07-12T12:15:52;24.60;99.90
23188;DHT22;11762;59.878;17.686;2022-07-12T12:18:31;24.60;99.90
23188;DHT22;11762;59.878;17.686;2022-07-12T12:21:01;24.80;99.90
23188;DHT22;11762;59.878;17.686;2022-07-12T12:23:28;24.60;99.90
23188;DHT22;11762;59.878;17.686;2022-07-12T12:26:12;24.60;99.90
23188;DHT22;11762;59.878;17.686;2022-07-12T12:28:45;24.80;99.90
23188;DHT22;11762;59.878;17.686;2022-07-12T12:31:13;24.90;99.30
23188;DHT22;11762;59.878;17.686;2022-07-12T12:33:42;25.00;99.90
23188;DHT22;11762;59.878;17.686;2022-07-12T12:36:17;25.20;99.90
23188;DHT22;11762;59.878;17.686;2022-07-12T12:38:46;25.20;99.70
23188;DHT22;11762;59.878;17.686;2022-07-12T12:41:14;25.20;99.90
23188;DHT22;11762;59.878;17.686;2022-07-12T12:43:42;25.00;99.90
23188;DHT22;11762;59.878;17.686;2022-07-12T12:46:09;25.00;98.50
23188;DHT22;11762;59.878;17.686;2022-07-12T12:48:36;25.00;99.30
23188;DHT22;11762;59.878;17.686;2022-07-12T12:51:06;25.00;98.80
23188;DHT22;11762;59.878;17.686;2022-07-12T12:53:34;24.90;98.00
23188;DHT22;11762;59.878;17.686;2022-07-12T12:56:05;25.00;98.10
23188;DHT22;11762;59.878;17.686;2022-07-12T12:58:33;25.10;98.90
23188;DHT22;11762;59.878;17.686;2022-07-12T13:01:00;25.00;98.50
23188;DHT22;11762;59.878;17.686;2022-07-12T13:03:27;25.00;97.80
23188;DHT22;11762;59.878;17.686;2022-07-12T13:05:54;24.90;98.90
23188;DHT22;11762;59.878;17.686;2022-07-12T13:08:23;24.80;98.90
23188;DHT22;11762;59.878;17.686;2022-07-12T13:10:50;24.80;98.50
23188;DHT22;11762;59.878;17.686;2022-07-12T13:13:38;24.80;97.80
23188;DHT22;11762;59.878;17.686;2022-07-12T13:16:06;24.90;99.10
23188;DHT22;11762;59.878;17.686;2022-07-12T13:18:33;24.80;99.90
23188;DHT22;11762;59.878;17.686;2022-07-12T13:21:00;24.70;99.30
23188;DHT22;11762;59.878;17.686;2022-07-12T13:23:29;24.70;99.90
23188;DHT22;11762;59.878;17.686;2022-07-12T13:25:56;24.70;99.50
23188;DHT22;11762;59.878;17.686;2022-07-12T13:28:23;24.80;99.90
23188;DHT22;11762;59.878;17.686;2022-07-12T13:30:50;24.80;99.90
23188;DHT22;11762;59.878;17.686;2022-07-12T13:33:20;24.80;98.50
23188;DHT22;11762;59.878;17.686;2022-07-12T13:35:48;24.80;98.00
23188;DHT22;11762;59.878;17.686;2022-07-12T13:38:14;24.80;99.90
23188;DHT22;11762;59.878;17.686;2022-07-12T13:40:43;24.80;99.80
23188;DHT22;11762;59.878;17.686;2022-07-12T13:43:10;24.80;99.90
23188;DHT22;11762;59.878;17.686;2022-07-12T13:45:37;24.80;99.30
23188;DHT22;11762;59.878;17.686;2022-07-12T13:48:04;24.80;99.90
23188;DHT22;11762;59.878;17.686;2022-07-12T13:50:31;24.80;99.90
23188;DHT22;11762;59.878;17.686;2022-07-12T13:52:59;24.80;99.90
23188;DHT22;11762;59.878;17.686;2022-07-12T13:55:26;24.80;99.20
23188;DHT22;11762;59.878;17.686;2022-07-12T13:57:55;24.80;99.30
23188;DHT22;11762;59.878;17.686;2022-07-12T14:00:22;24.80;99.20
23188;DHT22;11762;59.878;17.686;2022-07-12T14:02:49;24.70;98.30
23188;DHT22;11762;59.878;17.686;2022-07-12T14:05:17;24.70;99.90
23188;DHT22;11762;59.878;17.686;2022-07-12T14:07:46;24.80;99.90
23188;DHT22;11762;59.878;17.686;2022-07-12T14:10:13;25.00;98.70
23188;DHT22;11762;59.878;17.686;2022-07-12T14:12:41;25.00;99.00
23188;DHT22;11762;59.878;17.686;2022-07-12T14:15:11;25.10;99.90
23188;DHT22;11762;59.878;17.686;2022-07-12T14:17:46;25.10;99.50
23188;DHT22;11762;59.878;17.686;2022-07-12T14:20:16;25.40;99.90
23188;DHT22;11762;59.878;17.686;2022-07-12T14:22:43;25.40;98.90
23188;DHT22;11762;59.878;17.686;2022-07-12T14:25:11;25.30;98.10
23188;DHT22;11762;59.878;17.686;2022-07-12T14:27:39;25.30;98.50
23188;DHT22;11762;59.878;17.686;2022-07-12T14:30:08;25.20;97.50
23188;DHT22;11762;59.878;17.686;2022-07-12T14:32:37;25.20;98.40
23188;DHT22;11762;59.878;17.686;2022-07-12T14:35:05;25.10;97.80
23188;DHT22;11762;59.878;17.686;2022-07-12T14:37:32;25.20;99.70
23188;DHT22;11762;59.878;17.686;2022-07-12T14:39:59;25.20;99.00
23188;DHT22;11762;59.878;17.686;2022-07-12T14:42:27;25.10;97.50
23188;DHT22;11762;59.878;17.686;2022-07-12T14:44:54;25.10;97.10
23188;DHT22;11762;59.878;17.686;2022-07-12T14:47:21;25.10;97.30
23188;DHT22;11762;59.878;17.686;2022-07-12T14:49:50;25.10;98.80
23188;DHT22;11762;59.878;17.686;2022-07-12T14:52:19;25.10;96.90
23188;DHT22;11762;59.878;17.686;2022-07-12T14:54:46;25.20;97.20
23188;DHT22;11762;59.878;17.686;2022-07-12T14:57:14;25.30;97.60
23188;DHT22;11762;59.878;17.686;2022-07-12T14:59:41;25.00;98.10
23188;DHT22;11762;59.878;17.686;2022-07-12T15:02:08;24.90;95.50
23188;DHT22;11762;59.878;17.686;2022-07-12T15:04:35;24.90;96.30
23188;DHT22;11762;59.878;17.686;2022-07-12T15:07:05;24.90;95.90
23188;DHT22;11762;59.878;17.686;2022-07-12T15:09:33;25.00;94.20
23188;DHT22;11762;59.878;17.686;2022-07-12T15:12:00;25.00;96.40
23188;DHT22;11762;59.878;17.686;2022-07-12T15:14:27;25.00;96.40
23188;DHT22;11762;59.878;17.686;2022-07-12T15:16:54;25.00;96.00
23188;DHT22;11762;59.878;17.686;2022-07-12T15:19:22;24.90;97.20
23188;DHT22;11762;59.878;17.686;2022-07-12T15:21:49;24.70;95.40
23188;DHT22;11762;59.878;17.686;2022-07-12T15:24:18;24.70;95.60